• Join FlightAware (Why Join?)
  • Login
  • US Flag 
03:50PM EDT


 

Airport Tracker/Info


-or-


 

Live Flight TrackerFlight Track Log ✈ N902SH ✈ 18-Jun-2013 ✈ 9V9 - KFSD

Flight Track Log - Related Links

Times and Time Zones

All times are in EDT time to prevent confusion due to time zone crossing. See the N902SH flight status page for this flight to view local times or setup timezone preferences in your user account.

Time Position Orientation Groundspeed Altitude Reporting Facility
EDT Latitude Longitude Course Direction KTS MPH feet Rate Location/Type
08:02AM 43.7347 -99.1014 96° East 172 198 8,500  Level Minneapolis Center
08:03AM 43.7281 -99.0133 96° East 186 214 11,000 2,160 Climbing Minneapolis Center
08:04AM 43.7219 -98.9239 95° East 193 222 13,400 1,980 Climbing Minneapolis Center
08:05AM 43.7172 -98.8514 95° East 191 220 15,100 1,620 Climbing Minneapolis Center
08:06AM 43.7119 -98.7769 96° East 195 224 16,800 960 Climbing Minneapolis Center
08:07AM 43.7069 -98.6944 95° East 211 243 17,100 120 Climbing Minneapolis Center
08:08AM 43.6872 -98.5886 104° East 262 302 17,100  Level Minneapolis Center
08:09AM 43.6669 -98.4894 106° East 267 307 17,100  Level Minneapolis Center
08:10AM 43.6483 -98.3872 104° East 275 316 17,100  Level Minneapolis Center
08:11AM 43.6281 -98.2858 105° East 274 315 17,100 -120 Level Minneapolis Center
08:12AM 43.6089 -98.1853 105° East 273 314 16,900 -540 Descending Minneapolis Center
08:13AM 43.5875 -98.0783 105° East 284 327 16,000 -960 Descending Minneapolis Center
08:14AM 43.5700 -97.9681 102° East 293 337 15,000 -1,140 Descending Minneapolis Center
08:15AM 43.5539 -97.8350 99° East 294 338 13,700 -1,140 Descending Minneapolis Center
08:16AM 43.5581 -97.7236 87° East 294 338 12,700 -1,020 Descending Minneapolis Center
08:17AM 43.5614 -97.6122 88° East 293 337 11,700 -1,080 Descending Minneapolis Center
08:18AM 43.5639 -97.4994 88° East 294 338 10,600 -1,080 Descending Minneapolis Center
08:19AM 43.5667 -97.3867 88° East 295 339 9,500 -1,140 Descending Minneapolis Center
08:20AM 43.5697 -97.2761 88° East 293 337 8,300 -1,200 Descending Minneapolis Center
08:21AM 43.5731 -97.1700 87° East 283 326 7,100 -1,320 Descending Minneapolis Center
08:22AM 43.5575 -97.0467 100° East 274 315 5,600 -1,500 Descending Minneapolis Center
08:23AM 43.5392 -96.9486 104° East 270 311 4,100 -1,320 Descending Minneapolis Center
08:24AM 43.5375 -96.8569 91° East 259 298 2,900 -840 Descending Minneapolis Center
08:25AM 43.5497 -96.8008 73° East 222 255 2,500 -540 Descending Minneapolis Center
08:26AM 43.5644 -96.7358 73° East 199 229 1,900 -600 Descending Minneapolis Center
08:28AM 43.5667 -96.7333 North  Level FlightAware Approximate
08:35AM 43.5820 -96.7419 North  Level Estimated